Time;durP1;ratioP1;P1;durP2;ratioP2;P2;SDS_P1;SDS_P2;PMS_P1;PMS_P2;Temp;Humidity;BMP_temperature;BMP_pressure;BME280_temperature;BME280_humidity;BME280_pressure;Samples;Min_cycle;Max_cycle;Signal;HPM_P1;HPM_P2
2021/05/12 00:02:28;;;;;;;17.43;11.87;;;;;10.90;100613.00;;;;10488830;28;20251;-77
2021/05/12 00:07:31;;;;;;;12.60;10.53;;;;;10.80;100606.00;;;;10455050;28;20312;-77
2021/05/12 00:12:34;;;;;;;14.43;10.47;;;;;10.60;100609.00;;;;10471126;28;20217;-78
2021/05/12 00:17:37;;;;;;;13.87;9.50;;;;;10.50;100613.00;;;;10487401;28;20191;-77
2021/05/12 00:22:48;;;;;;;9.67;7.53;;;;;10.30;100612.00;;;;10469560;28;20189;-78
2021/05/12 00:27:50;;;;;;;10.57;7.70;;;;;10.20;100615.00;;;;10428300;28;20268;-77
2021/05/12 00:32:52;;;;;;;10.37;8.20;;;;;10.20;100613.00;;;;10461050;28;20201;-77
2021/05/12 00:37:54;;;;;;;9.90;8.60;;;;;10.10;100613.00;;;;10444895;28;20194;-77
2021/05/12 00:42:55;;;;;;;11.53;9.13;;;;;10.00;100628.00;;;;10453186;28;20202;-77
2021/05/12 00:47:57;;;;;;;11.07;8.77;;;;;9.90;100626.00;;;;10443974;28;20218;-77
2021/05/12 00:53:00;;;;;;;13.53;9.77;;;;;9.90;100619.00;;;;10444523;28;20205;-77
2021/05/12 00:58:02;;;;;;;12.07;9.20;;;;;9.80;100615.00;;;;10445765;28;20190;-77
2021/05/12 01:03:05;;;;;;;11.63;9.00;;;;;9.80;100619.00;;;;10482978;28;20201;-77
2021/05/12 01:08:07;;;;;;;13.03;9.70;;;;;9.70;100615.00;;;;10463885;28;20259;-77
2021/05/12 01:13:12;;;;;;;14.83;10.40;;;;;9.60;100610.00;;;;10496896;28;20206;-77
2021/05/12 01:18:16;;;;;;;15.77;10.20;;;;;9.60;100622.00;;;;10514723;28;20182;-77
2021/05/12 01:23:21;;;;;;;16.03;10.17;;;;;9.60;100612.00;;;;10463434;28;20231;-77
2021/05/12 01:28:24;;;;;;;17.53;10.27;;;;;9.60;100620.00;;;;10437574;28;20217;-77
2021/05/12 01:33:26;;;;;;;17.90;9.93;;;;;9.60;100630.00;;;;10422025;28;20201;-76
2021/05/12 01:38:29;;;;;;;18.50;9.53;;;;;9.60;100619.00;;;;10438581;28;20186;-77
2021/05/12 01:43:32;;;;;;;18.03;9.13;;;;;9.50;100624.00;;;;10455429;28;20205;-77
2021/05/12 01:48:35;;;;;;;15.33;8.37;;;;;9.50;100619.00;;;;10405337;28;20225;-77
2021/05/12 01:53:38;;;;;;;18.07;8.33;;;;;9.40;100610.00;;;;10440087;28;20554;-77
2021/05/12 01:58:40;;;;;;;16.53;8.17;;;;;9.30;100611.00;;;;10468102;28;20216;-77
2021/05/12 02:03:42;;;;;;;12.20;7.77;;;;;9.20;100606.00;;;;10504045;28;20220;-77
2021/05/12 02:08:44;;;;;;;13.30;8.50;;;;;9.20;100592.00;;;;10504471;28;20225;-77
2021/05/12 02:13:46;;;;;;;17.87;8.30;;;;;9.10;100591.00;;;;10486733;28;20239;-77
2021/05/12 02:18:48;;;;;;;13.83;8.57;;;;;9.00;100596.00;;;;10503148;28;20189;-77
2021/05/12 02:23:50;;;;;;;14.40;8.33;;;;;9.00;100602.00;;;;10490097;28;20228;-77
2021/05/12 02:28:51;;;;;;;13.43;8.60;;;;;8.90;100595.00;;;;10494960;28;20240;-77
2021/05/12 02:33:53;;;;;;;17.17;8.93;;;;;8.80;100601.00;;;;10511213;28;20188;-77
2021/05/12 02:38:55;;;;;;;15.63;8.97;;;;;8.80;100607.00;;;;10511691;28;20192;-77
2021/05/12 02:43:57;;;;;;;13.83;9.50;;;;;8.80;100603.00;;;;10478541;28;20428;-77
2021/05/12 02:48:59;;;;;;;14.87;9.00;;;;;8.80;100604.00;;;;10511331;28;20238;-77
2021/05/12 02:54:01;;;;;;;13.27;8.70;;;;;8.70;100606.00;;;;10511075;28;20832;-77
2021/05/12 02:59:03;;;;;;;15.23;8.80;;;;;8.70;100608.00;;;;10459002;28;20190;-77
2021/05/12 03:04:05;;;;;;;15.13;9.90;;;;;8.60;100606.00;;;;10460877;28;20534;-77
2021/05/12 03:09:07;;;;;;;19.47;10.80;;;;;8.60;100616.00;;;;10442736;28;20214;-77
2021/05/12 03:14:10;;;;;;;16.07;10.43;;;;;8.60;100605.00;;;;10427038;28;20198;-76
2021/05/12 03:19:12;;;;;;;18.77;10.13;;;;;8.60;100611.00;;;;10428068;28;20190;-77
2021/05/12 03:24:14;;;;;;;17.87;9.87;;;;;8.50;100614.00;;;;10457973;28;20197;-77
2021/05/12 03:29:16;;;;;;;20.07;10.27;;;;;8.40;100608.00;;;;10521798;28;20244;-77
2021/05/12 03:34:18;;;;;;;16.83;10.00;;;;;8.40;100612.00;;;;10484681;28;20194;-77
2021/05/12 03:39:20;;;;;;;19.00;10.47;;;;;8.40;100621.00;;;;10467161;28;20224;-77
2021/05/12 03:44:22;;;;;;;17.10;10.87;;;;;8.40;100635.00;;;;10450724;28;20240;-77
2021/05/12 03:49:25;;;;;;;17.53;10.20;;;;;8.40;100639.00;;;;10483824;28;20214;-77
2021/05/12 03:54:27;;;;;;;15.27;9.97;;;;;8.40;100638.00;;;;10483593;28;20202;-76
2021/05/12 03:59:29;;;;;;;17.40;9.90;;;;;8.30;100640.00;;;;10466931;28;20194;-77
2021/05/12 04:04:31;;;;;;;15.37;9.53;;;;;8.40;100648.00;;;;10466348;28;20835;-76
2021/05/12 04:09:33;;;;;;;16.80;9.13;;;;;8.40;100640.00;;;;10449227;28;20618;-77
2021/05/12 04:14:35;;;;;;;18.23;9.53;;;;;8.40;100657.00;;;;10465677;28;20296;-77
2021/05/12 04:19:37;;;;;;;20.13;8.70;;;;;8.40;100654.00;;;;10481893;28;20185;-77
2021/05/12 04:24:38;;;;;;;13.50;8.50;;;;;8.50;100656.00;;;;10498941;28;20197;-77
2021/05/12 04:29:40;;;;;;;14.20;9.77;;;;;8.60;100664.00;;;;10481762;28;20201;-77
2021/05/12 04:34:42;;;;;;;15.83;8.43;;;;;8.70;100661.00;;;;10449202;28;20236;-77
2021/05/12 04:39:44;;;;;;;13.63;8.20;;;;;8.80;100663.00;;;;10465765;28;20219;-77
2021/05/12 04:44:46;;;;;;;16.30;7.63;;;;;8.90;100667.00;;;;10481890;28;20680;-77
2021/05/12 04:49:48;;;;;;;20.60;8.83;;;;;9.20;100668.00;;;;10514695;28;20209;-77
2021/05/12 04:54:50;;;;;;;16.63;8.17;;;;;9.40;100671.00;;;;10476237;28;20196;-77
2021/05/12 04:59:51;;;;;;;25.10;8.27;;;;;9.70;100671.00;;;;10452807;28;20190;-77
2021/05/12 05:04:54;;;;;;;14.30;7.70;;;;;10.10;100658.00;;;;10463774;28;20279;-77
2021/05/12 05:10:00;;;;;;;14.77;7.37;;;;;10.40;100676.00;;;;10464238;28;20244;-76
2021/05/12 05:15:02;;;;;;;12.67;7.67;;;;;10.60;100679.00;;;;10447039;28;20198;-76
2021/05/12 05:20:06;;;;;;;9.77;6.43;;;;;10.40;100677.00;;;;10463538;28;20217;-76
2021/05/12 05:25:08;;;;;;;9.83;6.27;;;;;10.50;100686.00;;;;10471783;28;20220;-76
2021/05/12 05:30:11;;;;;;;13.70;6.43;;;;;11.00;100690.00;;;;10480021;28;20209;-76
2021/05/12 05:35:31;;;;;;;10.30;5.83;;;;;11.50;100699.00;;;;10488230;28;20200;-77
2021/05/12 05:40:52;;;;;;;11.37;5.80;;;;;11.90;100698.00;;;;10506208;28;20197;-77
2021/05/12 05:46:14;;;;;;;6.57;4.87;;;;;12.60;100700.00;;;;10473943;28;20201;-77
2021/05/12 05:51:34;;;;;;;10.87;5.13;;;;;13.20;100712.00;;;;10473826;28;20209;-77
2021/05/12 05:56:55;;;;;;;10.23;4.27;;;;;13.70;100700.00;;;;10475864;28;20767;-77
2021/05/12 06:02:35;;;;;;;8.97;3.77;;;;;14.10;100703.00;;;;10348401;28;20203;-77
2021/05/12 06:07:55;;;;;;;6.30;2.70;;;;;14.40;100706.00;;;;10429381;28;20354;-77
2021/05/12 06:13:16;;;;;;;7.83;2.80;;;;;14.70;100708.00;;;;10463124;28;20205;-78
2021/05/12 06:18:39;;;;;;;5.97;2.37;;;;;15.00;100710.00;;;;10478723;28;20202;-78
2021/05/12 06:23:59;;;;;;;9.20;2.60;;;;;15.20;100708.00;;;;10435203;28;20260;-77
2021/05/12 06:29:20;;;;;;;6.63;2.37;;;;;15.50;100700.00;;;;10477168;28;20205;-77
2021/05/12 06:34:45;;;;;;;7.07;2.60;;;;;15.90;100692.00;;;;10437360;28;20256;-78
2021/05/12 06:40:06;;;;;;;13.57;2.40;;;;;16.40;100692.00;;;;10446440;28;20194;-77
2021/05/12 06:45:12;;;;;;;5.57;2.30;;;;;16.80;100691.00;;;;10435217;28;20204;-77
2021/05/12 06:50:15;;;;;;;5.60;2.30;;;;;17.10;100683.00;;;;10482788;28;20210;-76
2021/05/12 06:55:17;;;;;;;9.18;2.58;;;;;17.30;100665.00;;;;10520402;28;20197;-76
2021/05/12 07:00:20;;;;;;;10.65;2.70;;;;;17.60;100632.00;;;;10432280;28;20181;-76
2021/05/12 07:05:25;;;;;;;4.97;2.38;;;;;17.80;100615.00;;;;10469969;28;20221;-76
2021/05/12 07:10:27;;;;;;;5.85;2.30;;;;;18.20;100587.00;;;;10444644;28;20242;-76
2021/05/12 07:15:29;;;;;;;9.73;2.83;;;;;19.30;100563.00;;;;10459820;28;20241;-76
2021/05/12 07:20:31;;;;;;;6.63;2.28;;;;;19.60;100549.00;;;;10497529;28;20277;-76
2021/05/12 07:25:34;;;;;;;10.77;3.00;;;;;18.50;100579.00;;;;10483462;28;20213;-76
2021/05/12 07:30:36;;;;;;;8.43;2.60;;;;;18.00;100595.00;;;;10426674;28;20217;-76
2021/05/12 07:35:38;;;;;;;10.38;2.58;;;;;18.10;100581.00;;;;10469313;28;20677;-76
2021/05/12 07:40:40;;;;;;;13.93;3.00;;;;;17.90;100576.00;;;;10498850;28;20190;-76
2021/05/12 07:45:42;;;;;;;12.55;2.97;;;;;18.60;100542.00;;;;10465977;28;20197;-76
2021/05/12 07:50:46;;;;;;;14.05;2.35;;;;;18.90;100540.00;;;;10455749;28;20206;-76
2021/05/12 07:55:47;;;;;;;15.60;2.90;;;;;19.50;100521.00;;;;10481739;28;20198;-76
2021/05/12 08:00:49;;;;;;;9.65;2.33;;;;;20.10;100502.00;;;;10466000;28;20197;-76
2021/05/12 08:05:51;;;;;;;8.35;2.70;;;;;20.40;100501.00;;;;10457071;28;20273;-76
2021/05/12 08:10:53;;;;;;;11.23;3.08;;;;;20.90;100487.00;;;;10464857;28;20193;-76
2021/05/12 08:15:55;;;;;;;12.00;2.63;;;;;21.00;100491.00;;;;10499398;28;20194;-76
2021/05/12 08:20:57;;;;;;;7.50;2.70;;;;;20.30;100493.00;;;;10465587;28;20200;-77
2021/05/12 08:25:59;;;;;;;10.75;2.90;;;;;20.80;100479.00;;;;10454039;28;20659;-77
2021/05/12 08:31:03;;;;;;;14.98;3.28;;;;;20.80;100483.00;;;;10460292;28;20198;-77
2021/05/12 08:36:05;;;;;;;8.52;2.45;;;;;21.60;100485.00;;;;10467690;28;20267;-77
2021/05/12 08:41:07;;;;;;;10.40;2.80;;;;;21.10;100503.00;;;;10443713;28;20649;-77
2021/05/12 08:46:10;;;;;;;13.35;3.00;;;;;20.60;100522.00;;;;10441836;28;20242;-77
2021/05/12 08:51:12;;;;;;;9.02;2.78;;;;;20.20;100539.00;;;;10411435;28;20206;-76
2021/05/12 08:56:14;;;;;;;8.75;2.28;;;;;19.60;100536.00;;;;10418036;28;20285;-77
2021/05/12 09:01:19;;;;;;;7.55;2.47;;;;;19.90;100535.00;;;;10478263;28;20193;-76
2021/05/12 09:06:21;;;;;;;8.77;2.38;;;;;19.40;100540.00;;;;10455157;28;20305;-75
2021/05/12 09:11:23;;;;;;;7.80;2.20;;;;;19.20;100548.00;;;;10441345;28;20252;-75
2021/05/12 09:16:35;;;;;;;10.73;2.15;;;;;20.30;100553.00;;;;10475389;28;20212;-77
2021/05/12 09:21:50;;;;;;;7.95;2.20;;;;;20.00;100556.00;;;;10472377;28;20209;-77
2021/05/12 09:26:54;;;;;;;9.57;2.35;;;;;19.40;100561.00;;;;10509347;28;20235;-77
2021/05/12 09:32:14;;;;;;;9.73;2.08;;;;;19.00;100562.00;;;;10522007;28;20204;-76
2021/05/12 09:37:25;;;;;;;6.20;2.10;;;;;18.40;100567.00;;;;10471711;28;20196;-76
2021/05/12 09:42:27;;;;;;;5.65;1.75;;;;;18.40;100563.00;;;;10505141;28;20212;-76
2021/05/12 09:47:29;;;;;;;7.00;1.90;;;;;18.00;100578.00;;;;10487680;28;20205;-76
2021/05/12 09:52:31;;;;;;;4.60;2.00;;;;;19.00;100570.00;;;;10521197;28;20274;-76
2021/05/12 09:57:33;;;;;;;7.97;2.03;;;;;21.40;100561.00;;;;10452408;28;20202;-77
2021/05/12 10:02:45;;;;;;;5.53;2.00;;;;;22.90;100559.00;;;;10456181;28;20198;-77
2021/05/12 10:07:52;;;;;;;8.07;2.20;;;;;23.40;100563.00;;;;10462355;28;20247;-77
2021/05/12 10:12:54;;;;;;;6.40;2.08;;;;;22.70;100562.00;;;;10478573;28;20240;-77
2021/05/12 10:17:56;;;;;;;6.63;2.13;;;;;22.30;100563.00;;;;10450508;28;20205;-76
2021/05/12 10:22:57;;;;;;;7.85;2.20;;;;;22.80;100561.00;;;;10445439;28;20186;-77
2021/05/12 10:28:02;;;;;;;5.90;2.47;;;;;22.40;100548.00;;;;10442039;28;20202;-77
2021/05/12 10:33:07;;;;;;;5.97;2.08;;;;;22.00;100556.00;;;;10450024;28;20202;-76
2021/05/12 10:38:30;;;;;;;6.82;2.22;;;;;21.00;100547.00;;;;10444435;28;20240;-77
2021/05/12 10:43:44;;;;;;;8.63;2.50;;;;;20.80;100537.00;;;;10444119;28;20194;-77
2021/05/12 10:48:48;;;;;;;4.47;1.88;;;;;21.40;100526.00;;;;10427415;28;20218;-76
2021/05/12 10:53:52;;;;;;;5.20;1.83;;;;;20.90;100526.00;;;;10465518;28;20224;-77
2021/05/12 10:58:59;;;;;;;6.28;2.22;;;;;20.20;100537.00;;;;10468617;28;20190;-77
2021/05/12 11:04:01;;;;;;;5.70;2.17;;;;;19.40;100530.00;;;;10467968;28;20341;-76
2021/05/12 11:09:05;;;;;;;4.85;1.90;;;;;18.50;100532.00;;;;10485064;28;20561;-77
2021/05/12 11:14:22;;;;;;;3.03;1.55;;;;;17.80;100547.00;;;;10445658;28;20229;-77
2021/05/12 11:19:36;;;;;;;5.80;1.33;;;;;17.00;100545.00;;;;10428185;28;20649;-77
2021/05/12 11:24:51;;;;;;;5.68;1.40;;;;;16.80;100545.00;;;;10470928;28;20205;-76
2021/05/12 11:34:55;;;;;;;3.90;0.82;;;;;20.00;100531.00;;;;10483764;28;20253;-76
2021/05/12 11:39:58;;;;;;;2.65;0.60;;;;;21.40;100527.00;;;;10445870;28;20593;-77
2021/05/12 11:45:10;;;;;;;8.13;1.35;;;;;23.70;100523.00;;;;10504752;28;20308;-77
2021/05/12 11:50:19;;;;;;;2.22;0.82;;;;;24.50;100526.00;;;;10462456;28;20267;-77
2021/05/12 11:55:27;;;;;;;1.45;0.85;;;;;24.20;100529.00;;;;10487491;28;20260;-77
2021/05/12 12:00:31;;;;;;;1.20;0.65;;;;;22.80;100530.00;;;;10445845;28;20202;-77
2021/05/12 12:05:39;;;;;;;3.17;1.17;;;;;21.90;100522.00;;;;10449789;28;20228;-78
2021/05/12 12:10:43;;;;;;;3.80;1.15;;;;;22.70;100512.00;;;;10479745;28;20279;-78
2021/05/12 12:15:47;;;;;;;5.20;1.20;;;;;23.40;100502.00;;;;10489730;28;20198;-77
2021/05/12 12:20:49;;;;;;;3.55;1.35;;;;;23.90;100509.00;;;;10442556;28;20209;-77
2021/05/12 12:26:14;;;;;;;3.28;1.10;;;;;24.20;100507.00;;;;10489732;28;20209;-77
2021/05/12 12:31:22;;;;;;;2.97;1.23;;;;;24.60;100494.00;;;;10456753;28;20279;-78
2021/05/12 12:36:24;;;;;;;4.15;1.50;;;;;23.90;100501.00;;;;10489412;28;20203;-78
2021/05/12 12:41:31;;;;;;;5.38;1.42;;;;;22.80;100505.00;;;;10470427;28;20229;-77
2021/05/12 12:46:33;;;;;;;4.47;1.95;;;;;21.40;100503.00;;;;10468497;28;20268;-77
2021/05/12 12:51:40;;;;;;;5.07;1.60;;;;;20.50;100511.00;;;;10485151;28;20212;-77
2021/05/12 12:56:51;;;;;;;4.63;1.73;;;;;19.80;100507.00;;;;10468127;28;20201;-77
2021/05/12 13:02:02;;;;;;;3.63;1.80;;;;;18.80;100510.00;;;;10500254;28;20224;-77
2021/05/12 13:07:06;;;;;;;4.72;1.70;;;;;17.80;100521.00;;;;10466140;28;20300;-77
2021/05/12 13:12:08;;;;;;;4.63;1.60;;;;;17.00;100526.00;;;;10465360;28;20304;-77
2021/05/12 13:17:10;;;;;;;10.97;2.60;;;;;16.00;100537.00;;;;10502360;28;20208;-78
2021/05/12 13:22:26;;;;;;;7.10;2.40;;;;;14.80;100538.00;;;;10465031;28;20193;-77
2021/05/12 13:27:28;;;;;;;8.17;1.87;;;;;14.20;100553.00;;;;10482005;28;20205;-76
2021/05/12 13:32:30;;;;;;;6.40;1.77;;;;;13.90;100547.00;;;;10447493;28;20684;-77
2021/05/12 13:37:31;;;;;;;6.80;1.93;;;;;14.30;100541.00;;;;10463288;28;20201;-77
2021/05/12 13:42:34;;;;;;;7.93;2.07;;;;;14.50;100537.00;;;;10496537;28;20584;-76
2021/05/12 13:47:36;;;;;;;7.70;1.77;;;;;14.50;100542.00;;;;10513355;28;20198;-77
2021/05/12 13:52:52;;;;;;;2.93;1.63;;;;;14.60;100539.00;;;;10469104;28;20275;-77
2021/05/12 14:03:04;;;;;;;4.90;1.87;;;;;20.60;100514.00;;;;10466933;28;20187;-77
2021/05/12 14:08:06;;;;;;;4.83;1.50;;;;;23.80;100502.00;;;;10448513;28;20210;-77
2021/05/12 14:13:18;;;;;;;7.10;1.65;;;;;24.40;100503.00;;;;10464797;28;20203;-77
2021/05/12 14:18:20;;;;;;;5.55;2.13;;;;;25.00;100509.00;;;;10481605;28;20197;-77
2021/05/12 14:23:22;;;;;;;4.00;1.50;;;;;23.90;100520.00;;;;10465802;28;20256;-77
2021/05/12 14:28:30;;;;;;;5.63;1.40;;;;;20.20;100518.00;;;;10456061;28;20672;-77
2021/05/12 14:33:32;;;;;;;4.75;1.50;;;;;24.80;100490.00;;;;10470692;28;20209;-77
2021/05/12 14:38:34;;;;;;;5.68;1.75;;;;;22.60;100494.00;;;;10489548;28;20209;-77
2021/05/12 14:43:37;;;;;;;6.57;1.38;;;;;21.10;100501.00;;;;10488588;28;20197;-77
2021/05/12 14:48:44;;;;;;;6.40;1.65;;;;;19.00;100502.00;;;;10488526;28;20197;-77
2021/05/12 14:53:51;;;;;;;3.58;1.65;;;;;18.70;100487.00;;;;10470531;28;20190;-77
2021/05/12 15:10:08;;;;;;;2.40;1.20;;;;;18.90;100479.00;;;;10413659;28;20209;-76
2021/05/12 15:15:11;;;;;;;4.55;1.38;;;;;17.50;100497.00;;;;10486692;28;20197;-77
2021/05/12 15:20:13;;;;;;;5.40;1.77;;;;;16.00;100508.00;;;;10469779;28;20190;-76
2021/05/12 15:25:16;;;;;;;5.27;1.63;;;;;15.00;100521.00;;;;10468073;28;20731;-76
2021/05/12 15:30:21;;;;;;;6.33;2.00;;;;;14.40;100522.00;;;;10502548;28;20205;-75
2021/05/12 15:35:23;;;;;;;8.13;1.70;;;;;14.20;100528.00;;;;10468385;28;20971;-77
2021/05/12 15:40:25;;;;;;;4.53;1.67;;;;;14.10;100523.00;;;;10433912;28;20786;-77
2021/05/12 15:45:28;;;;;;;7.40;1.97;;;;;13.90;100516.00;;;;10443210;28;20542;-76
2021/05/12 15:50:29;;;;;;;4.80;1.80;;;;;14.00;100503.00;;;;10441721;28;20242;-76
2021/05/12 15:55:32;;;;;;;8.40;2.10;;;;;14.40;100500.00;;;;10425738;28;20198;-77
2021/05/12 16:00:36;;;;;;;9.80;2.60;;;;;15.30;100503.00;;;;10441512;28;20221;-76
2021/05/12 16:05:38;;;;;;;4.90;2.07;;;;;17.60;100506.00;;;;10441568;28;20210;-77
2021/05/12 16:10:40;;;;;;;7.17;2.23;;;;;17.30;100501.00;;;;10489700;28;20209;-76
2021/05/12 16:15:49;;;;;;;8.00;2.63;;;;;16.80;100505.00;;;;10477814;28;20256;-76
2021/05/12 16:20:51;;;;;;;9.10;2.40;;;;;16.50;100503.00;;;;10458109;28;20586;-76
2021/05/12 16:25:53;;;;;;;6.60;2.40;;;;;16.50;100499.00;;;;10424161;28;20194;-77
2021/05/12 16:30:55;;;;;;;7.00;1.80;;;;;16.50;100508.00;;;;10441074;28;20213;-76
2021/05/12 16:35:57;;;;;;;4.87;1.70;;;;;16.30;100505.00;;;;10440966;28;20198;-76
2021/05/12 16:40:59;;;;;;;3.47;1.47;;;;;16.20;100503.00;;;;10473650;28;20197;-77
2021/05/12 16:46:01;;;;;;;7.93;1.87;;;;;16.10;100504.00;;;;10439968;28;20205;-76
2021/05/12 16:51:03;;;;;;;4.43;1.63;;;;;16.10;100516.00;;;;10455760;28;20699;-76
2021/05/12 16:56:05;;;;;;;3.20;1.60;;;;;16.00;100515.00;;;;10474966;28;20257;-76
2021/05/12 17:01:07;;;;;;;5.73;2.03;;;;;15.60;100513.00;;;;10492850;28;20193;-76
2021/05/12 17:06:09;;;;;;;7.10;2.67;;;;;15.00;100521.00;;;;10480213;28;20240;-76
2021/05/12 17:11:12;;;;;;;10.40;2.00;;;;;14.60;100521.00;;;;10497075;28;20206;-76
2021/05/12 17:16:14;;;;;;;4.37;2.17;;;;;14.30;100526.00;;;;10480119;28;20595;-76
2021/05/12 17:21:16;;;;;;;4.60;2.07;;;;;14.20;100534.00;;;;10463694;28;20189;-76
2021/05/12 17:26:18;;;;;;;5.87;2.40;;;;;14.00;100538.00;;;;10513062;28;20208;-76
2021/05/12 17:31:21;;;;;;;7.17;2.00;;;;;13.80;100536.00;;;;10497004;28;20209;-76
2021/05/12 17:36:24;;;;;;;5.77;2.50;;;;;13.70;100538.00;;;;10475901;28;20206;-76
2021/05/12 17:41:26;;;;;;;5.37;2.27;;;;;13.70;100546.00;;;;10479476;28;20248;-76
2021/05/12 17:46:28;;;;;;;7.77;2.53;;;;;13.60;100560.00;;;;10476307;28;20831;-77
2021/05/12 17:51:31;;;;;;;4.80;2.60;;;;;13.50;100561.00;;;;10438273;28;20206;-76
2021/05/12 17:56:32;;;;;;;7.03;2.40;;;;;13.60;100566.00;;;;10496954;28;20201;-76
2021/05/12 18:01:34;;;;;;;7.40;2.20;;;;;13.60;100563.00;;;;10479088;28;20194;-76
2021/05/12 18:06:38;;;;;;;7.23;2.40;;;;;13.60;100575.00;;;;10478497;28;20241;-76
2021/05/12 18:17:17;;;;;;;7.70;2.03;;;;;13.90;100570.00;;;;10444487;28;20267;-76
2021/05/12 18:22:21;;;;;;;4.47;1.73;;;;;13.90;100576.00;;;;10512145;28;20216;-76
2021/05/12 18:27:22;;;;;;;4.43;1.77;;;;;13.80;100589.00;;;;10462005;28;20645;-76
2021/05/12 18:32:24;;;;;;;4.30;2.13;;;;;13.70;100594.00;;;;10478687;28;20697;-76
2021/05/12 18:37:32;;;;;;;7.00;2.00;;;;;13.70;100596.00;;;;10478773;28;20198;-76
2021/05/12 18:42:37;;;;;;;2.20;1.67;;;;;13.30;100598.00;;;;10486898;28;20190;-77
2021/05/12 18:48:01;;;;;;;2.60;1.70;;;;;13.00;100595.00;;;;10486450;28;20228;-77
2021/05/12 18:53:04;;;;;;;2.80;1.50;;;;;12.60;100600.00;;;;10502147;28;20227;-77
2021/05/12 18:58:06;;;;;;;2.97;1.60;;;;;12.40;100600.00;;;;10483026;28;20733;-77
2021/05/12 19:03:13;;;;;;;4.90;2.00;;;;;12.20;100587.00;;;;10460981;28;20222;-77
2021/05/12 19:08:40;;;;;;;3.83;1.87;;;;;12.10;100590.00;;;;10460510;28;20604;-77
2021/05/12 19:18:59;;;;;;;6.10;1.67;;;;;11.70;100613.00;;;;10460421;28;20194;-77
2021/05/12 19:44:52;;;;;;;3.33;1.87;;;;;11.30;100621.00;;;;10500693;28;20604;-77
2021/05/12 19:49:58;;;;;;;3.80;1.60;;;;;11.30;100620.00;;;;10462610;28;20218;-77
2021/05/12 19:55:05;;;;;;;3.07;1.90;;;;;11.30;100617.00;;;;10438412;28;20280;-77
2021/05/12 20:00:08;;;;;;;3.97;1.90;;;;;11.30;100616.00;;;;10449444;28;20662;-77
2021/05/12 20:05:12;;;;;;;3.90;2.43;;;;;11.20;100615.00;;;;10483093;28;20546;-77
2021/05/12 20:15:16;;;;;;;4.83;2.50;;;;;10.80;100611.00;;;;10448911;28;20203;-77
2021/05/12 20:20:18;;;;;;;5.40;2.40;;;;;10.50;100615.00;;;;10432633;28;20240;-77
2021/05/12 20:25:20;;;;;;;4.00;2.50;;;;;10.40;100609.00;;;;10448943;28;20208;-77
2021/05/12 20:30:22;;;;;;;4.03;2.40;;;;;10.20;100611.00;;;;10456882;28;20214;-77
2021/05/12 20:40:49;;;;;;;6.63;3.17;;;;;10.10;100586.00;;;;10423179;28;20190;-77
2021/05/12 20:45:51;;;;;;;5.40;3.00;;;;;10.00;100581.00;;;;10442024;28;20248;-77
2021/05/12 20:50:53;;;;;;;3.73;2.50;;;;;9.90;100582.00;;;;10462440;28;20213;-76
2021/05/12 20:55:54;;;;;;;5.93;2.63;;;;;9.80;100570.00;;;;10478743;28;20202;-77
2021/05/12 21:00:57;;;;;;;8.30;2.47;;;;;9.70;100572.00;;;;10495200;28;20645;-77
2021/05/12 21:05:59;;;;;;;7.53;2.73;;;;;9.70;100574.00;;;;10462489;28;20620;-77
2021/05/12 21:11:01;;;;;;;4.90;2.70;;;;;9.60;100559.00;;;;10461685;28;20206;-77
2021/05/12 21:16:03;;;;;;;6.47;3.40;;;;;9.60;100544.00;;;;10462711;28;20194;-75
2021/05/12 21:21:11;;;;;;;7.60;3.20;;;;;9.60;100540.00;;;;10461948;28;20193;-75
2021/05/12 21:26:14;;;;;;;3.97;3.27;;;;;9.50;100539.00;;;;10445029;28;20207;-75
2021/05/12 21:31:17;;;;;;;4.03;2.90;;;;;9.40;100534.00;;;;10512138;28;20213;-75
2021/05/12 21:36:19;;;;;;;9.93;3.60;;;;;9.30;100533.00;;;;10477900;28;20194;-75
2021/05/12 21:41:21;;;;;;;7.37;3.40;;;;;9.10;100526.00;;;;10461300;28;20232;-75
2021/05/12 21:46:23;;;;;;;5.63;3.63;;;;;9.10;100540.00;;;;10457234;28;575566;-75
2021/05/12 21:51:25;;;;;;;5.63;3.97;;;;;9.20;100528.00;;;;10446400;28;20210;-75
2021/05/12 21:56:27;;;;;;;9.40;4.07;;;;;9.20;100522.00;;;;10488913;28;20564;-76
2021/05/12 22:01:29;;;;;;;5.53;3.60;;;;;9.10;100516.00;;;;10471793;28;20189;-76
2021/05/12 22:07:38;;;;;;;4.40;3.93;;;;;9.10;100518.00;;;;10504111;28;20232;-76
2021/05/12 22:32:50;;;;;;;7.43;4.73;;;;;8.60;100504.00;;;;10511427;28;20275;-76
2021/05/12 22:37:56;;;;;;;9.53;5.70;;;;;8.50;100514.00;;;;10527697;28;20578;-76
2021/05/12 22:42:58;;;;;;;8.13;5.17;;;;;8.30;100513.00;;;;10511300;28;20185;-76
2021/05/12 22:48:05;;;;;;;8.33;5.97;;;;;8.20;100507.00;;;;10527323;28;20667;-76
2021/05/12 22:53:11;;;;;;;13.40;6.37;;;;;8.20;100496.00;;;;10494279;28;20304;-76
2021/05/12 22:58:14;;;;;;;11.33;7.33;;;;;8.30;100481.00;;;;10453834;28;20201;-76
2021/05/12 23:03:16;;;;;;;9.60;6.90;;;;;8.30;100478.00;;;;10484608;28;20544;-76
2021/05/12 23:08:18;;;;;;;9.33;6.70;;;;;8.30;100476.00;;;;10501359;28;20205;-75
2021/05/12 23:13:20;;;;;;;8.33;6.13;;;;;8.40;100481.00;;;;10518715;28;20209;-76
2021/05/12 23:18:22;;;;;;;9.67;6.80;;;;;8.50;100475.00;;;;10435442;28;20197;-76
2021/05/12 23:23:25;;;;;;;11.03;6.13;;;;;8.60;100479.00;;;;10484006;28;20189;-76
2021/05/12 23:28:27;;;;;;;7.57;6.13;;;;;8.70;100476.00;;;;10469890;28;20198;-76
2021/05/12 23:33:29;;;;;;;9.70;6.23;;;;;8.80;100467.00;;;;10471612;28;20214;-76
2021/05/12 23:38:31;;;;;;;8.70;6.77;;;;;8.80;100466.00;;;;10444259;28;20205;-76
2021/05/12 23:43:33;;;;;;;11.97;6.30;;;;;8.80;100461.00;;;;10458459;28;20187;-76
2021/05/12 23:48:35;;;;;;;8.33;6.53;;;;;8.80;100447.00;;;;10458861;28;20198;-76
2021/05/12 23:53:37;;;;;;;11.20;6.57;;;;;8.80;100442.00;;;;10443262;28;20751;-76
2021/05/12 23:58:39;;;;;;;9.03;6.17;;;;;8.70;100434.00;;;;10467400;28;20564;-76
